createdAt,value
2022-11-20T00:01:22.193Z,2.68
2022-11-20T00:03:49.329Z,2.68
2022-11-20T00:06:19.063Z,2.75
2022-11-20T00:08:46.639Z,2.69
2022-11-20T00:11:16.690Z,2.70
2022-11-20T00:13:44.670Z,2.68
2022-11-20T00:16:13.543Z,2.70
2022-11-20T00:18:40.183Z,2.67
2022-11-20T00:21:15.001Z,2.61
2022-11-20T00:23:42.463Z,2.56
2022-11-20T00:26:12.288Z,2.55
2022-11-20T00:28:38.832Z,2.48
2022-11-20T00:31:07.357Z,2.42
2022-11-20T00:33:34.337Z,2.34
2022-11-20T00:36:04.883Z,2.18
2022-11-20T00:38:32.506Z,2.03
2022-11-20T00:41:01.380Z,1.89
2022-11-20T00:43:28.576Z,1.80
2022-11-20T00:46:02.924Z,1.67
2022-11-20T00:48:29.668Z,1.56
2022-11-20T00:50:56.640Z,1.41
2022-11-20T00:53:23.814Z,1.31
2022-11-20T00:56:01.124Z,1.22
2022-11-20T00:58:32.154Z,1.09
2022-11-20T01:01:06.662Z,0.93
2022-11-20T01:03:34.369Z,0.80
2022-11-20T01:06:05.839Z,0.66
2022-11-20T01:08:33.389Z,0.59
2022-11-20T01:11:03.787Z,0.47
2022-11-20T01:13:40.406Z,0.40
2022-11-20T01:16:15.267Z,0.27
2022-11-20T01:18:44.912Z,0.20
2022-11-20T01:21:17.643Z,0.09
2022-11-20T01:23:45.754Z,-0.04
2022-11-20T01:26:17.230Z,-0.12
2022-11-20T01:28:43.861Z,-0.16
2022-11-20T01:31:16.356Z,-0.22
2022-11-20T01:33:44.223Z,-0.28
2022-11-20T01:36:11.959Z,-0.31
2022-11-20T01:38:39.340Z,-0.40
2022-11-20T01:41:06.856Z,-0.42
2022-11-20T01:43:33.723Z,-0.40
2022-11-20T01:46:18.854Z,-0.40
2022-11-20T01:49:00.199Z,-0.44
2022-11-20T01:51:49.495Z,-0.42
2022-11-20T01:54:24.126Z,-0.41
2022-11-20T01:56:55.266Z,-0.39
2022-11-20T01:59:25.320Z,-0.41
2022-11-20T02:01:52.027Z,-0.41
2022-11-20T02:04:19.353Z,-0.40
2022-11-20T02:06:51.653Z,-0.43
2022-11-20T02:09:18.393Z,-0.43
2022-11-20T02:11:44.978Z,-0.41
2022-11-20T02:14:11.920Z,-0.40
2022-11-20T02:16:44.774Z,-0.35
2022-11-20T02:19:24.449Z,-0.36
2022-11-20T02:22:15.620Z,-0.20
2022-11-20T02:24:44.884Z,-0.20
2022-11-20T02:27:14.316Z,-0.23
2022-11-20T02:30:03.292Z,-0.28
2022-11-20T02:32:32.815Z,-0.37
2022-11-20T02:35:06.938Z,-0.37
2022-11-20T02:37:37.323Z,-0.39
2022-11-20T02:40:04.815Z,-0.45
2022-11-20T02:42:31.321Z,-0.60
2022-11-20T02:44:57.812Z,-0.64
2022-11-20T02:47:24.381Z,-0.58
2022-11-20T02:49:50.873Z,-0.52
2022-11-20T02:52:17.418Z,-0.46
2022-11-20T02:54:43.928Z,-0.45
2022-11-20T02:57:10.414Z,-0.54
2022-11-20T02:59:36.932Z,-0.65
2022-11-20T03:02:03.454Z,-0.74
2022-11-20T03:04:30.026Z,-0.73
2022-11-20T03:06:56.616Z,-0.72
2022-11-20T03:09:23.471Z,-0.73
2022-11-20T03:11:50.195Z,-0.70
2022-11-20T03:14:16.851Z,-0.68
2022-11-20T03:16:43.418Z,-0.66
2022-11-20T03:19:10.259Z,-0.65
2022-11-20T03:21:36.939Z,-0.59
2022-11-20T03:24:04.312Z,-0.54
2022-11-20T03:26:31.286Z,-0.48
2022-11-20T03:29:00.396Z,-0.45
2022-11-20T03:31:33.040Z,-0.45
2022-11-20T03:34:00.648Z,-0.50
2022-11-20T03:36:28.703Z,-0.52
2022-11-20T03:38:56.552Z,-0.48
2022-11-20T03:41:27.950Z,-0.46
2022-11-20T03:43:56.723Z,-0.46
2022-11-20T03:46:23.944Z,-0.47
2022-11-20T03:48:52.204Z,-0.51
2022-11-20T03:51:21.653Z,-0.46
2022-11-20T03:53:49.912Z,-0.47
2022-11-20T03:56:18.608Z,-0.50
2022-11-20T03:58:45.240Z,-0.42
2022-11-20T04:01:14.488Z,-0.38
2022-11-20T04:03:42.632Z,-0.31
2022-11-20T04:06:18.286Z,-0.23
2022-11-20T04:08:48.504Z,-0.12
2022-11-20T04:11:20.928Z,0.13
2022-11-20T04:13:51.838Z,0.32
2022-11-20T04:16:19.151Z,0.38
2022-11-20T04:18:45.956Z,0.43
2022-11-20T04:21:12.885Z,0.46
2022-11-20T04:23:40.061Z,0.45
2022-11-20T04:26:09.589Z,0.43
2022-11-20T04:28:37.027Z,0.48
2022-11-20T04:31:08.939Z,0.54
2022-11-20T04:33:36.394Z,0.72
2022-11-20T04:36:17.149Z,0.90
2022-11-20T04:38:44.324Z,1.03
2022-11-20T04:41:21.217Z,1.16
2022-11-20T04:43:51.609Z,1.31
2022-11-20T04:46:19.607Z,1.40
2022-11-20T04:48:46.475Z,1.50
2022-11-20T04:51:13.460Z,1.56
2022-11-20T04:53:40.588Z,1.64
2022-11-20T04:56:09.402Z,1.73
2022-11-20T04:58:35.977Z,1.78
2022-11-20T05:01:13.292Z,1.81
2022-11-20T05:03:42.640Z,1.82
2022-11-20T05:06:11.054Z,1.83
2022-11-20T05:08:37.712Z,1.84
2022-11-20T05:11:09.846Z,1.86
2022-11-20T05:13:36.910Z,1.86
2022-11-20T05:16:06.179Z,1.80
2022-11-20T05:18:33.772Z,1.73
2022-11-20T05:21:00.378Z,1.61
2022-11-20T05:23:27.522Z,1.57
2022-11-20T05:25:59.523Z,1.45
2022-11-20T05:28:27.961Z,1.40
2022-11-20T05:30:54.563Z,1.38
2022-11-20T05:33:21.812Z,1.46
2022-11-20T05:35:49.426Z,1.42
2022-11-20T05:38:16.315Z,1.44
2022-11-20T05:40:42.851Z,1.42
2022-11-20T05:43:09.327Z,1.46
2022-11-20T05:45:36.134Z,1.51
2022-11-20T05:48:02.667Z,1.54
2022-11-20T05:50:29.313Z,1.62
2022-11-20T05:52:56.131Z,1.59
2022-11-20T05:55:22.693Z,1.61
2022-11-20T05:57:49.198Z,1.65
2022-11-20T06:00:16.317Z,1.63
2022-11-20T06:02:42.866Z,1.63
2022-11-20T06:05:09.638Z,1.62
2022-11-20T06:07:36.256Z,1.65
2022-11-20T06:10:03.107Z,1.72
2022-11-20T06:12:29.626Z,1.75
2022-11-20T06:14:56.096Z,1.78
2022-11-20T06:17:22.673Z,1.84
2022-11-20T06:19:49.153Z,1.87
2022-11-20T06:22:15.677Z,1.93
2022-11-20T06:24:42.267Z,1.98
2022-11-20T06:27:08.758Z,2.03
2022-11-20T06:29:35.750Z,2.09
2022-11-20T06:32:02.623Z,2.13
2022-11-20T06:34:29.157Z,2.19
2022-11-20T06:36:55.670Z,2.22
2022-11-20T06:39:22.513Z,2.25
2022-11-20T06:41:49.564Z,2.29
2022-11-20T06:44:17.134Z,2.33
2022-11-20T06:46:43.615Z,2.36
2022-11-20T06:49:10.317Z,2.38
2022-11-20T06:51:37.089Z,2.46
2022-11-20T06:54:03.988Z,2.50
2022-11-20T06:56:30.496Z,2.50
2022-11-20T06:58:57.056Z,2.51
2022-11-20T07:01:23.558Z,2.55
2022-11-20T07:03:54.375Z,2.58
2022-11-20T07:06:21.066Z,2.62
2022-11-20T07:08:48.084Z,2.66
2022-11-20T07:11:14.910Z,2.73
2022-11-20T07:13:41.439Z,2.75
2022-11-20T07:16:09.255Z,2.80
2022-11-20T07:18:36.494Z,2.79
2022-11-20T07:21:05.195Z,2.83
2022-11-20T07:23:32.120Z,2.86
2022-11-20T07:25:58.955Z,2.92
2022-11-20T07:28:25.567Z,2.93
2022-11-20T07:30:53.247Z,2.97
2022-11-20T07:33:20.764Z,3.00
2022-11-20T07:35:47.292Z,3.02
2022-11-20T07:38:13.839Z,3.05
2022-11-20T07:40:40.516Z,3.09
2022-11-20T07:43:07.402Z,3.13
2022-11-20T07:45:33.985Z,3.17
2022-11-20T07:48:00.472Z,3.20
2022-11-20T07:50:27.017Z,3.24
2022-11-20T07:52:53.724Z,3.28
2022-11-20T07:55:20.250Z,3.28
2022-11-20T07:57:46.778Z,3.33
2022-11-20T08:00:14.023Z,3.38
2022-11-20T08:02:41.958Z,3.43
2022-11-20T08:05:10.610Z,3.44
2022-11-20T08:07:41.395Z,3.46
2022-11-20T08:10:09.429Z,3.50
2022-11-20T08:12:54.690Z,3.53
2022-11-20T08:15:21.674Z,3.55
2022-11-20T08:18:08.444Z,3.60
2022-11-20T08:20:35.870Z,3.65
2022-11-20T08:23:04.879Z,3.67
2022-11-20T08:25:32.256Z,3.68
2022-11-20T08:28:00.587Z,3.75
2022-11-20T08:30:28.642Z,3.80
2022-11-20T08:32:56.175Z,3.84
2022-11-20T08:35:23.058Z,3.90
2022-11-20T08:37:49.942Z,3.94
2022-11-20T08:40:19.619Z,4.03
2022-11-20T08:42:52.726Z,4.05
2022-11-20T08:45:20.025Z,4.08
2022-11-20T08:47:47.241Z,4.09
2022-11-20T08:50:16.231Z,4.13
2022-11-20T08:52:42.803Z,4.14
2022-11-20T08:55:10.046Z,4.14
2022-11-20T08:57:37.861Z,4.18
2022-11-20T09:00:07.116Z,4.22
2022-11-20T09:02:34.004Z,4.24
2022-11-20T09:05:00.596Z,4.23
2022-11-20T09:07:27.140Z,4.25
2022-11-20T09:10:16.550Z,4.29
2022-11-20T09:12:40.160Z,4.31
2022-11-20T09:15:07.173Z,4.34
2022-11-20T09:17:33.781Z,4.38
2022-11-20T09:20:00.306Z,4.45
2022-11-20T09:22:26.864Z,4.50
2022-11-20T09:24:53.431Z,4.52
2022-11-20T09:27:23.196Z,4.54
2022-11-20T09:29:49.737Z,4.57
2022-11-20T09:32:16.418Z,4.66
2022-11-20T09:34:42.899Z,4.71
2022-11-20T09:37:09.455Z,4.71
2022-11-20T09:39:40.298Z,4.77
2022-11-20T09:42:22.483Z,4.83
2022-11-20T09:44:54.968Z,4.89
2022-11-20T09:47:56.200Z,4.84
2022-11-20T09:50:53.817Z,4.90
2022-11-20T09:53:36.069Z,4.92
2022-11-20T09:56:04.565Z,4.95
2022-11-20T09:58:40.532Z,4.96
2022-11-20T10:01:30.262Z,5.00
2022-11-20T10:04:07.068Z,5.10
2022-11-20T10:06:40.680Z,5.22
2022-11-20T10:09:20.077Z,5.31
2022-11-20T10:11:52.689Z,5.38
2022-11-20T10:14:58.622Z,5.41
2022-11-20T10:21:39.600Z,5.42
2022-11-20T10:24:28.428Z,5.44
2022-11-20T10:27:10.112Z,5.44
2022-11-20T10:29:43.911Z,5.42
2022-11-20T10:32:17.467Z,5.40
2022-11-20T10:35:05.055Z,5.46
2022-11-20T10:37:35.945Z,5.47
2022-11-20T10:40:21.103Z,5.55
2022-11-20T10:42:52.839Z,5.63
2022-11-20T10:45:35.785Z,5.64
2022-11-20T10:48:08.465Z,5.79
2022-11-20T10:50:41.231Z,5.85
2022-11-20T10:53:44.287Z,5.93
2022-11-20T10:56:39.956Z,6.09
2022-11-20T10:59:24.559Z,6.08
2022-11-20T11:01:51.215Z,6.11
2022-11-20T11:04:41.944Z,6.10
2022-11-20T11:07:16.271Z,6.17
2022-11-20T11:09:49.188Z,6.17
2022-11-20T11:12:15.899Z,6.12
2022-11-20T11:14:44.179Z,6.14
2022-11-20T11:17:22.519Z,6.17
2022-11-20T11:20:19.804Z,6.19
2022-11-20T11:22:52.136Z,6.19
2022-11-20T11:25:36.148Z,6.31
2022-11-20T11:28:19.218Z,6.46
2022-11-20T11:30:46.592Z,6.62
2022-11-20T11:33:21.270Z,6.73
2022-11-20T11:35:59.260Z,6.80
2022-11-20T11:38:37.279Z,6.97
2022-11-20T11:41:05.565Z,7.04
2022-11-20T11:43:56.520Z,7.04
2022-11-20T11:46:31.683Z,7.04
2022-11-20T11:49:00.031Z,7.02
2022-11-20T11:51:39.359Z,6.94
2022-11-20T11:54:17.597Z,6.90
2022-11-20T11:56:45.223Z,6.88
2022-11-20T11:59:18.582Z,6.87
2022-11-20T12:01:54.255Z,6.84
2022-11-20T12:04:59.924Z,6.79
2022-11-20T12:07:48.361Z,6.78
2022-11-20T12:10:23.591Z,6.80
2022-11-20T12:13:01.931Z,6.82
2022-11-20T12:15:34.097Z,6.84
2022-11-20T12:18:01.663Z,6.81
2022-11-20T12:20:36.405Z,6.82
2022-11-20T12:23:15.388Z,6.83
2022-11-20T12:25:47.339Z,6.83
2022-11-20T12:28:38.144Z,6.87
2022-11-20T12:31:23.319Z,6.87
2022-11-20T12:34:03.935Z,6.88
2022-11-20T12:36:48.430Z,6.89
2022-11-20T12:39:41.880Z,6.89
2022-11-20T12:42:43.104Z,6.91
2022-11-20T12:45:33.976Z,6.86
2022-11-20T12:48:43.547Z,6.88
2022-11-20T12:51:37.005Z,6.88
2022-11-20T12:54:25.327Z,6.93
2022-11-20T12:57:26.989Z,6.96
2022-11-20T13:00:11.984Z,6.99
2022-11-20T13:02:51.942Z,7.02
2022-11-20T13:05:42.975Z,7.02
2022-11-20T13:08:17.886Z,7.00
2022-11-20T13:11:04.374Z,7.01
2022-11-20T13:13:30.885Z,7.03
2022-11-20T13:16:05.865Z,7.01
2022-11-20T13:18:40.709Z,7.00
2022-11-20T13:21:36.055Z,6.96
2022-11-20T13:24:24.615Z,6.95
2022-11-20T13:27:14.720Z,6.96
2022-11-20T13:29:45.297Z,6.95
2022-11-20T13:32:18.785Z,6.97
2022-11-20T13:35:02.721Z,6.98
2022-11-20T13:37:38.130Z,6.96
2022-11-20T13:40:12.080Z,6.98
2022-11-20T13:42:45.759Z,6.99
2022-11-20T13:45:35.252Z,7.00
2022-11-20T13:48:22.292Z,7.03
2022-11-20T13:51:04.472Z,7.07
2022-11-20T13:54:08.436Z,7.09
2022-11-20T13:56:53.031Z,7.09
2022-11-20T13:59:25.593Z,7.07
2022-11-20T14:01:52.259Z,7.11
2022-11-20T14:04:34.038Z,7.17
2022-11-20T14:07:00.885Z,7.16
2022-11-20T14:09:34.916Z,7.14
2022-11-20T14:12:03.965Z,7.17
2022-11-20T14:14:34.107Z,7.17
2022-11-20T14:17:23.839Z,7.24
2022-11-20T14:19:55.085Z,7.26
2022-11-20T14:22:24.263Z,7.31
2022-11-20T14:25:22.348Z,7.32
2022-11-20T14:27:53.148Z,7.34
2022-11-20T14:30:24.513Z,7.36
2022-11-20T14:32:52.621Z,7.38
2022-11-20T14:35:25.841Z,7.44
2022-11-20T14:37:55.770Z,7.43
2022-11-20T14:40:26.870Z,7.41
2022-11-20T14:42:54.157Z,7.43
2022-11-20T14:45:22.376Z,7.42
2022-11-20T14:47:50.007Z,7.46
2022-11-20T14:50:23.906Z,7.50
2022-11-20T14:52:55.858Z,7.56
2022-11-20T14:55:30.056Z,7.59
2022-11-20T14:58:07.885Z,7.62
2022-11-20T15:00:35.720Z,7.66
2022-11-20T15:03:02.472Z,7.67
2022-11-20T15:05:49.761Z,7.72
2022-11-20T15:08:17.433Z,7.77
2022-11-20T15:10:51.614Z,7.79
2022-11-20T15:13:37.983Z,7.83
2022-11-20T15:16:16.936Z,7.88
2022-11-20T15:18:43.879Z,7.94
2022-11-20T15:21:13.030Z,8.06
2022-11-20T15:23:39.533Z,8.16
2022-11-20T15:26:07.572Z,8.13
2022-11-20T15:28:37.077Z,8.10
2022-11-20T15:31:05.293Z,8.08
2022-11-20T15:33:33.406Z,7.98
2022-11-20T15:36:00.873Z,7.93
2022-11-20T15:38:27.602Z,7.87
2022-11-20T15:40:54.477Z,7.88
2022-11-20T15:43:21.343Z,7.80
2022-11-20T15:45:52.454Z,7.77
2022-11-20T15:48:23.865Z,7.79
2022-11-20T15:51:22.965Z,7.77
2022-11-20T15:53:49.682Z,7.71
2022-11-20T15:56:16.698Z,7.74
2022-11-20T15:58:43.639Z,7.73
2022-11-20T16:01:16.373Z,7.68
2022-11-20T16:03:44.468Z,7.65
2022-11-20T16:06:11.421Z,7.60
2022-11-20T16:08:38.525Z,7.59
2022-11-20T16:11:05.552Z,7.52
2022-11-20T16:13:52.044Z,7.54
2022-11-20T16:16:34.128Z,7.59
2022-11-20T16:19:01.360Z,7.53
2022-11-20T16:21:32.022Z,7.45
2022-11-20T16:24:04.126Z,7.33
2022-11-20T16:26:31.083Z,7.29
2022-11-20T16:29:00.142Z,7.25
2022-11-20T16:31:27.713Z,7.20
2022-11-20T16:33:56.716Z,7.19
2022-11-20T16:36:25.510Z,7.08
2022-11-20T16:38:58.278Z,7.09
2022-11-20T16:41:26.755Z,7.06
2022-11-20T16:44:01.333Z,7.09
2022-11-20T16:46:32.530Z,7.12
2022-11-20T16:49:06.164Z,7.16
2022-11-20T16:51:36.142Z,7.11
2022-11-20T16:54:04.776Z,7.05
2022-11-20T16:56:31.359Z,7.00
2022-11-20T16:58:59.738Z,7.11
2022-11-20T17:01:28.897Z,7.03
2022-11-20T17:04:01.569Z,7.00
2022-11-20T17:06:30.757Z,6.96
2022-11-20T17:08:57.919Z,6.93
2022-11-20T17:11:26.724Z,6.92
2022-11-20T17:13:55.056Z,6.91
2022-11-20T17:16:23.170Z,6.95
2022-11-20T17:18:52.868Z,6.91
2022-11-20T17:21:19.836Z,6.87
2022-11-20T17:23:47.243Z,6.81
2022-11-20T17:26:17.813Z,6.78
2022-11-20T17:28:47.628Z,6.67
2022-11-20T17:31:16.756Z,6.61
2022-11-20T17:33:45.654Z,6.58
2022-11-20T17:36:15.471Z,6.54
2022-11-20T17:38:42.731Z,6.47
2022-11-20T17:41:13.366Z,6.55
2022-11-20T17:43:40.332Z,6.50
2022-11-20T17:46:12.107Z,6.49
2022-11-20T17:48:42.875Z,6.55
2022-11-20T17:51:11.411Z,6.57
2022-11-20T17:53:40.945Z,6.57
2022-11-20T17:56:25.910Z,6.50
2022-11-20T17:58:52.493Z,6.48
2022-11-20T18:01:19.299Z,6.47
2022-11-20T18:03:46.535Z,6.42
2022-11-20T18:06:19.320Z,6.42
2022-11-20T18:08:46.395Z,6.45
2022-11-20T18:11:17.116Z,6.45
2022-11-20T18:14:04.460Z,6.40
2022-11-20T18:16:35.960Z,6.36
2022-11-20T18:19:02.639Z,6.31
2022-11-20T18:21:30.069Z,6.36
2022-11-20T18:24:00.172Z,6.38
2022-11-20T18:26:27.150Z,6.38
2022-11-20T18:28:54.370Z,6.40
2022-11-20T18:31:21.403Z,6.35
2022-11-20T18:33:48.003Z,6.34
2022-11-20T18:36:20.986Z,6.33
2022-11-20T18:38:50.360Z,6.30
2022-11-20T18:41:38.834Z,6.30
2022-11-20T18:44:30.421Z,6.37
2022-11-20T18:46:57.316Z,6.45
2022-11-20T18:49:23.945Z,6.50
2022-11-20T18:51:50.487Z,6.46
2022-11-20T18:54:17.202Z,6.34
2022-11-20T18:56:43.908Z,6.25
2022-11-20T18:59:11.366Z,6.14
2022-11-20T19:01:38.367Z,6.08
2022-11-20T19:04:09.495Z,6.05
2022-11-20T19:06:37.249Z,6.00
2022-11-20T19:09:11.668Z,6.01
2022-11-20T19:11:40.082Z,6.00
2022-11-20T19:14:07.340Z,5.89
2022-11-20T19:16:34.642Z,5.86
2022-11-20T19:19:03.472Z,5.82
2022-11-20T19:21:30.650Z,5.83
2022-11-20T19:23:59.586Z,5.81
2022-11-20T19:26:26.644Z,5.77
2022-11-20T19:28:53.835Z,5.79
2022-11-20T19:31:27.062Z,5.77
2022-11-20T19:33:58.887Z,5.74
2022-11-20T19:36:28.389Z,5.70
2022-11-20T19:38:55.522Z,5.68
2022-11-20T19:41:29.062Z,5.63
2022-11-20T19:44:01.546Z,5.56
2022-11-20T19:46:29.761Z,5.55
2022-11-20T19:48:57.492Z,5.49
2022-11-20T19:51:26.324Z,5.47
2022-11-20T19:53:55.666Z,5.47
2022-11-20T19:56:22.526Z,5.41
2022-11-20T19:58:49.048Z,5.41
2022-11-20T20:01:18.659Z,5.43
2022-11-20T20:03:46.589Z,5.46
2022-11-20T20:06:18.716Z,5.49
2022-11-20T20:08:45.517Z,5.45
2022-11-20T20:11:17.532Z,5.48
2022-11-20T20:13:45.168Z,5.53
2022-11-20T20:16:13.767Z,5.50
2022-11-20T20:18:40.377Z,5.56
2022-11-20T20:21:09.204Z,5.68
2022-11-20T20:23:36.272Z,5.75
2022-11-20T20:26:04.950Z,5.72
2022-11-20T20:28:32.429Z,5.75
2022-11-20T20:31:09.745Z,5.73
2022-11-20T20:33:38.377Z,5.68
2022-11-20T20:36:13.787Z,5.66
2022-11-20T20:38:40.441Z,5.62
2022-11-20T20:41:06.969Z,5.58
2022-11-20T20:43:53.571Z,5.60
2022-11-20T20:46:20.479Z,5.66
2022-11-20T20:48:51.501Z,5.69
2022-11-20T20:51:20.864Z,5.74
2022-11-20T20:53:47.792Z,5.78
2022-11-20T20:56:14.534Z,5.84
2022-11-20T20:58:44.451Z,5.84
2022-11-20T21:01:13.639Z,5.87
2022-11-20T21:03:40.672Z,5.88
2022-11-20T21:06:09.916Z,5.89
2022-11-20T21:08:40.439Z,5.98
2022-11-20T21:11:11.987Z,6.06
2022-11-20T21:13:40.071Z,6.10
2022-11-20T21:16:07.156Z,6.08
2022-11-20T21:18:34.479Z,6.09
2022-11-20T21:21:22.944Z,6.11
2022-11-20T21:23:49.471Z,6.03
2022-11-20T21:26:16.338Z,5.99
2022-11-20T21:28:43.313Z,6.05
2022-11-20T21:31:10.989Z,6.11
2022-11-20T21:33:44.232Z,6.20
2022-11-20T21:36:13.683Z,6.28
2022-11-20T21:38:40.599Z,6.33
2022-11-20T21:41:09.575Z,6.37
2022-11-20T21:43:36.177Z,6.35
2022-11-20T21:46:04.940Z,6.31
2022-11-20T21:48:32.360Z,6.19
2022-11-20T21:51:07.245Z,6.04
2022-11-20T21:53:34.277Z,5.94
2022-11-20T21:56:01.262Z,5.91
2022-11-20T21:58:28.335Z,5.91
2022-11-20T22:00:55.125Z,5.82
2022-11-20T22:03:22.457Z,5.80
2022-11-20T22:05:59.158Z,5.78
2022-11-20T22:08:26.605Z,5.77
2022-11-20T22:10:55.216Z,5.66
2022-11-20T22:13:41.310Z,5.60
2022-11-20T22:16:08.361Z,5.65
2022-11-20T22:18:35.498Z,5.64
2022-11-20T22:21:07.856Z,5.62
2022-11-20T22:23:35.061Z,5.70
2022-11-20T22:26:09.503Z,5.82
2022-11-20T22:28:36.892Z,5.88
2022-11-20T22:31:06.198Z,5.93
2022-11-20T22:33:33.962Z,5.98
2022-11-20T22:36:14.747Z,6.02
2022-11-20T22:38:41.954Z,6.02
2022-11-20T22:41:22.822Z,6.00
2022-11-20T22:43:54.741Z,5.92
2022-11-20T22:46:21.239Z,5.91
2022-11-20T22:48:53.268Z,5.92
2022-11-20T22:51:22.080Z,5.93
2022-11-20T22:53:49.400Z,5.89
2022-11-20T22:56:17.389Z,5.86
2022-11-20T22:58:46.187Z,5.83
2022-11-20T23:01:15.523Z,5.78
2022-11-20T23:03:44.418Z,5.81
2022-11-20T23:06:12.151Z,5.94
2022-11-20T23:08:40.157Z,6.06
2022-11-20T23:11:09.534Z,6.17
2022-11-20T23:13:37.179Z,6.27
2022-11-20T23:16:06.499Z,6.32
2022-11-20T23:18:33.900Z,6.34
2022-11-20T23:21:08.324Z,6.39
2022-11-20T23:23:35.013Z,6.40
2022-11-20T23:26:05.286Z,6.33
2022-11-20T23:28:31.862Z,6.27
2022-11-20T23:30:58.599Z,6.28
2022-11-20T23:33:25.285Z,6.33
2022-11-20T23:35:52.121Z,6.37
2022-11-20T23:38:19.127Z,6.38
2022-11-20T23:40:52.057Z,6.31
2022-11-20T23:43:21.435Z,6.21
2022-11-20T23:45:55.735Z,6.19
2022-11-20T23:48:25.099Z,6.08
2022-11-20T23:50:51.611Z,6.05
2022-11-20T23:53:18.914Z,6.03
2022-11-20T23:55:47.616Z,6.07
2022-11-20T23:58:14.326Z,6.15
